HASO/ASO METAR and TAF weather

Enter ICAO airport designator
Station Type Date Time Source
HASO METAR UTC NOAA

Error!


Station Type Date Time Source
HASO Decoded METAR UTC NOAA

Error!

Station Type Date Time Source
HASO TAF 2021/02/19 18:20 UTC NOAA

TAF HASO 191530Z 1918/2024 07006KT 9/9 -HZ BKN020 SCT075
TEMPO 2006/2008 04006KT -HZ FEW019 FEW075

Example: see airport list